sensor_id;sensor_type;location;lat;lon;timestamp;P1;durP1;ratioP1;P2;durP2;ratioP2
19907;SDS011;10116;53.112;7.356;2023-06-10T00:00:12;3.20;;;2.90;;
19907;SDS011;10116;53.112;7.356;2023-06-10T00:02:40;3.93;;;3.30;;
19907;SDS011;10116;53.112;7.356;2023-06-10T00:05:06;2.97;;;2.77;;
19907;SDS011;10116;53.112;7.356;2023-06-10T00:07:33;3.40;;;3.20;;
19907;SDS011;10116;53.112;7.356;2023-06-10T00:10:02;3.20;;;3.00;;
19907;SDS011;10116;53.112;7.356;2023-06-10T00:12:31;3.10;;;2.90;;
19907;SDS011;10116;53.112;7.356;2023-06-10T00:15:02;3.50;;;3.20;;
19907;SDS011;10116;53.112;7.356;2023-06-10T00:17:31;3.20;;;3.00;;
19907;SDS011;10116;53.112;7.356;2023-06-10T00:19:57;3.10;;;2.90;;
19907;SDS011;10116;53.112;7.356;2023-06-10T00:22:23;3.00;;;2.80;;
19907;SDS011;10116;53.112;7.356;2023-06-10T00:24:54;3.63;;;3.33;;
19907;SDS011;10116;53.112;7.356;2023-06-10T00:27:20;2.70;;;2.57;;
19907;SDS011;10116;53.112;7.356;2023-06-10T00:29:46;3.63;;;2.40;;
19907;SDS011;10116;53.112;7.356;2023-06-10T00:32:12;2.73;;;2.53;;
19907;SDS011;10116;53.112;7.356;2023-06-10T00:34:37;2.70;;;2.57;;
19907;SDS011;10116;53.112;7.356;2023-06-10T00:37:03;2.60;;;2.50;;
19907;SDS011;10116;53.112;7.356;2023-06-10T00:39:28;3.37;;;3.00;;
19907;SDS011;10116;53.112;7.356;2023-06-10T00:41:54;3.30;;;3.10;;
19907;SDS011;10116;53.112;7.356;2023-06-10T00:44:20;2.83;;;2.70;;
19907;SDS011;10116;53.112;7.356;2023-06-10T00:46:45;3.03;;;2.90;;
19907;SDS011;10116;53.112;7.356;2023-06-10T00:49:11;2.73;;;2.63;;
19907;SDS011;10116;53.112;7.356;2023-06-10T00:51:37;2.80;;;2.60;;
19907;SDS011;10116;53.112;7.356;2023-06-10T00:54:03;2.67;;;2.57;;
19907;SDS011;10116;53.112;7.356;2023-06-10T00:56:29;2.80;;;2.60;;
19907;SDS011;10116;53.112;7.356;2023-06-10T00:58:55;3.40;;;3.20;;
19907;SDS011;10116;53.112;7.356;2023-06-10T01:01:20;3.17;;;2.97;;
19907;SDS011;10116;53.112;7.356;2023-06-10T01:03:46;2.97;;;2.77;;
19907;SDS011;10116;53.112;7.356;2023-06-10T01:06:19;2.50;;;2.40;;
19907;SDS011;10116;53.112;7.356;2023-06-10T01:09:02;3.40;;;2.87;;
19907;SDS011;10116;53.112;7.356;2023-06-10T01:11:43;3.13;;;2.93;;
19907;SDS011;10116;53.112;7.356;2023-06-10T01:14:15;2.67;;;2.50;;
19907;SDS011;10116;53.112;7.356;2023-06-10T01:16:42;2.70;;;2.60;;
19907;SDS011;10116;53.112;7.356;2023-06-10T01:19:11;2.87;;;2.67;;
19907;SDS011;10116;53.112;7.356;2023-06-10T01:21:38;3.27;;;3.07;;
19907;SDS011;10116;53.112;7.356;2023-06-10T01:24:04;3.37;;;3.17;;
19907;SDS011;10116;53.112;7.356;2023-06-10T01:26:33;3.13;;;2.93;;
19907;SDS011;10116;53.112;7.356;2023-06-10T01:29:03;3.03;;;2.83;;
19907;SDS011;10116;53.112;7.356;2023-06-10T01:31:45;2.77;;;2.60;;
19907;SDS011;10116;53.112;7.356;2023-06-10T01:34:19;2.77;;;2.57;;
19907;SDS011;10116;53.112;7.356;2023-06-10T01:36:48;4.43;;;2.93;;
19907;SDS011;10116;53.112;7.356;2023-06-10T01:39:15;3.07;;;2.87;;
19907;SDS011;10116;53.112;7.356;2023-06-10T01:41:43;2.60;;;2.50;;
19907;SDS011;10116;53.112;7.356;2023-06-10T01:44:09;3.60;;;3.40;;
19907;SDS011;10116;53.112;7.356;2023-06-10T01:46:35;4.93;;;3.00;;
19907;SDS011;10116;53.112;7.356;2023-06-10T01:49:01;3.20;;;3.00;;
19907;SDS011;10116;53.112;7.356;2023-06-10T01:51:27;3.17;;;2.97;;
19907;SDS011;10116;53.112;7.356;2023-06-10T01:53:52;3.70;;;3.40;;
19907;SDS011;10116;53.112;7.356;2023-06-10T01:56:18;3.30;;;3.10;;
19907;SDS011;10116;53.112;7.356;2023-06-10T01:58:47;3.00;;;2.80;;
19907;SDS011;10116;53.112;7.356;2023-06-10T02:01:13;4.30;;;3.00;;
19907;SDS011;10116;53.112;7.356;2023-06-10T02:03:39;3.63;;;3.13;;
19907;SDS011;10116;53.112;7.356;2023-06-10T02:06:05;2.77;;;2.67;;
19907;SDS011;10116;53.112;7.356;2023-06-10T02:08:30;3.23;;;3.03;;
19907;SDS011;10116;53.112;7.356;2023-06-10T02:10:56;3.17;;;3.00;;
19907;SDS011;10116;53.112;7.356;2023-06-10T02:13:22;5.20;;;3.50;;
19907;SDS011;10116;53.112;7.356;2023-06-10T02:15:47;3.17;;;2.97;;
19907;SDS011;10116;53.112;7.356;2023-06-10T02:18:13;3.47;;;3.27;;
19907;SDS011;10116;53.112;7.356;2023-06-10T02:20:38;3.07;;;2.77;;
19907;SDS011;10116;53.112;7.356;2023-06-10T02:23:04;4.07;;;3.60;;
19907;SDS011;10116;53.112;7.356;2023-06-10T02:25:30;2.57;;;2.47;;
19907;SDS011;10116;53.112;7.356;2023-06-10T02:27:55;3.47;;;3.23;;
19907;SDS011;10116;53.112;7.356;2023-06-10T02:30:21;3.17;;;2.97;;
19907;SDS011;10116;53.112;7.356;2023-06-10T02:32:47;3.27;;;2.97;;
19907;SDS011;10116;53.112;7.356;2023-06-10T02:35:13;3.93;;;2.83;;
19907;SDS011;10116;53.112;7.356;2023-06-10T02:37:39;3.33;;;3.03;;
19907;SDS011;10116;53.112;7.356;2023-06-10T02:40:05;4.07;;;3.17;;
19907;SDS011;10116;53.112;7.356;2023-06-10T02:42:32;3.13;;;2.83;;
19907;SDS011;10116;53.112;7.356;2023-06-10T02:44:57;4.10;;;3.20;;
19907;SDS011;10116;53.112;7.356;2023-06-10T02:47:23;3.10;;;2.90;;
19907;SDS011;10116;53.112;7.356;2023-06-10T02:49:48;3.00;;;2.83;;
19907;SDS011;10116;53.112;7.356;2023-06-10T02:52:14;3.27;;;2.97;;
19907;SDS011;10116;53.112;7.356;2023-06-10T02:54:40;3.47;;;3.17;;
19907;SDS011;10116;53.112;7.356;2023-06-10T02:57:05;3.67;;;3.37;;
19907;SDS011;10116;53.112;7.356;2023-06-10T02:59:32;3.10;;;2.80;;
19907;SDS011;10116;53.112;7.356;2023-06-10T03:01:57;3.27;;;2.87;;
19907;SDS011;10116;53.112;7.356;2023-06-10T03:04:24;3.17;;;2.80;;
19907;SDS011;10116;53.112;7.356;2023-06-10T03:06:50;3.40;;;3.13;;
19907;SDS011;10116;53.112;7.356;2023-06-10T03:09:16;3.10;;;2.90;;
19907;SDS011;10116;53.112;7.356;2023-06-10T03:11:41;3.27;;;3.07;;
19907;SDS011;10116;53.112;7.356;2023-06-10T03:14:07;3.27;;;3.00;;
19907;SDS011;10116;53.112;7.356;2023-06-10T03:16:33;2.73;;;2.53;;
19907;SDS011;10116;53.112;7.356;2023-06-10T03:18:58;2.80;;;2.60;;
19907;SDS011;10116;53.112;7.356;2023-06-10T03:21:24;2.90;;;2.70;;
19907;SDS011;10116;53.112;7.356;2023-06-10T03:23:49;2.77;;;2.57;;
19907;SDS011;10116;53.112;7.356;2023-06-10T03:26:15;4.17;;;3.00;;
19907;SDS011;10116;53.112;7.356;2023-06-10T03:28:41;3.27;;;3.07;;
19907;SDS011;10116;53.112;7.356;2023-06-10T03:31:07;3.80;;;3.23;;
19907;SDS011;10116;53.112;7.356;2023-06-10T03:33:33;4.80;;;3.27;;
19907;SDS011;10116;53.112;7.356;2023-06-10T03:35:58;4.23;;;2.90;;
19907;SDS011;10116;53.112;7.356;2023-06-10T03:38:24;3.80;;;3.50;;
19907;SDS011;10116;53.112;7.356;2023-06-10T03:40:50;2.43;;;2.33;;
19907;SDS011;10116;53.112;7.356;2023-06-10T03:43:15;4.67;;;3.13;;
19907;SDS011;10116;53.112;7.356;2023-06-10T03:45:41;3.20;;;3.00;;
19907;SDS011;10116;53.112;7.356;2023-06-10T03:48:07;2.80;;;2.50;;
19907;SDS011;10116;53.112;7.356;2023-06-10T03:50:33;3.20;;;2.67;;
19907;SDS011;10116;53.112;7.356;2023-06-10T03:52:59;2.83;;;2.63;;
19907;SDS011;10116;53.112;7.356;2023-06-10T03:55:25;3.27;;;3.07;;
19907;SDS011;10116;53.112;7.356;2023-06-10T03:57:50;2.90;;;2.70;;
19907;SDS011;10116;53.112;7.356;2023-06-10T04:00:16;7.00;;;4.30;;
19907;SDS011;10116;53.112;7.356;2023-06-10T04:02:43;4.00;;;3.70;;
19907;SDS011;10116;53.112;7.356;2023-06-10T04:05:14;3.27;;;3.00;;
19907;SDS011;10116;53.112;7.356;2023-06-10T04:07:41;4.30;;;3.40;;
19907;SDS011;10116;53.112;7.356;2023-06-10T04:10:07;3.50;;;3.30;;
19907;SDS011;10116;53.112;7.356;2023-06-10T04:12:34;3.13;;;2.93;;
19907;SDS011;10116;53.112;7.356;2023-06-10T04:15:01;3.40;;;3.10;;
19907;SDS011;10116;53.112;7.356;2023-06-10T04:17:27;4.30;;;3.97;;
19907;SDS011;10116;53.112;7.356;2023-06-10T04:19:52;5.03;;;3.10;;
19907;SDS011;10116;53.112;7.356;2023-06-10T04:22:19;3.30;;;3.10;;
19907;SDS011;10116;53.112;7.356;2023-06-10T04:24:45;2.97;;;2.67;;
19907;SDS011;10116;53.112;7.356;2023-06-10T04:27:11;2.60;;;2.40;;
19907;SDS011;10116;53.112;7.356;2023-06-10T04:29:37;2.60;;;2.40;;
19907;SDS011;10116;53.112;7.356;2023-06-10T04:32:02;2.80;;;2.67;;
19907;SDS011;10116;53.112;7.356;2023-06-10T04:34:30;3.30;;;3.10;;
19907;SDS011;10116;53.112;7.356;2023-06-10T04:36:56;4.03;;;3.73;;
19907;SDS011;10116;53.112;7.356;2023-06-10T04:39:21;2.83;;;2.63;;
19907;SDS011;10116;53.112;7.356;2023-06-10T04:41:47;3.67;;;3.47;;
19907;SDS011;10116;53.112;7.356;2023-06-10T04:44:13;3.00;;;2.80;;
19907;SDS011;10116;53.112;7.356;2023-06-10T04:46:38;4.03;;;3.73;;
19907;SDS011;10116;53.112;7.356;2023-06-10T04:49:04;2.40;;;2.30;;
19907;SDS011;10116;53.112;7.356;2023-06-10T04:51:30;3.10;;;2.90;;
19907;SDS011;10116;53.112;7.356;2023-06-10T04:53:57;2.97;;;2.67;;
19907;SDS011;10116;53.112;7.356;2023-06-10T04:56:23;2.97;;;2.80;;
19907;SDS011;10116;53.112;7.356;2023-06-10T04:58:49;3.47;;;3.17;;
19907;SDS011;10116;53.112;7.356;2023-06-10T05:01:15;3.47;;;3.17;;
19907;SDS011;10116;53.112;7.356;2023-06-10T05:03:40;2.70;;;2.50;;
19907;SDS011;10116;53.112;7.356;2023-06-10T05:06:06;3.03;;;2.83;;
19907;SDS011;10116;53.112;7.356;2023-06-10T05:08:32;3.93;;;3.63;;
19907;SDS011;10116;53.112;7.356;2023-06-10T05:10:58;3.53;;;3.33;;
19907;SDS011;10116;53.112;7.356;2023-06-10T05:13:24;4.40;;;3.60;;
19907;SDS011;10116;53.112;7.356;2023-06-10T05:15:49;3.50;;;3.30;;
19907;SDS011;10116;53.112;7.356;2023-06-10T05:18:15;4.37;;;4.00;;
19907;SDS011;10116;53.112;7.356;2023-06-10T05:20:40;4.60;;;4.30;;
19907;SDS011;10116;53.112;7.356;2023-06-10T05:23:06;3.90;;;3.60;;
19907;SDS011;10116;53.112;7.356;2023-06-10T05:25:32;4.13;;;3.80;;
19907;SDS011;10116;53.112;7.356;2023-06-10T05:27:58;3.57;;;3.30;;
19907;SDS011;10116;53.112;7.356;2023-06-10T05:30:24;3.43;;;3.00;;
19907;SDS011;10116;53.112;7.356;2023-06-10T05:32:50;3.80;;;3.50;;
19907;SDS011;10116;53.112;7.356;2023-06-10T05:35:16;4.00;;;3.70;;
19907;SDS011;10116;53.112;7.356;2023-06-10T05:37:42;4.13;;;3.83;;
19907;SDS011;10116;53.112;7.356;2023-06-10T05:40:08;3.53;;;3.10;;
19907;SDS011;10116;53.112;7.356;2023-06-10T05:42:34;4.90;;;3.90;;
19907;SDS011;10116;53.112;7.356;2023-06-10T05:45:00;3.50;;;3.30;;
19907;SDS011;10116;53.112;7.356;2023-06-10T05:47:26;3.40;;;3.20;;
19907;SDS011;10116;53.112;7.356;2023-06-10T05:49:51;4.83;;;4.40;;
19907;SDS011;10116;53.112;7.356;2023-06-10T05:52:17;5.10;;;3.80;;
19907;SDS011;10116;53.112;7.356;2023-06-10T05:54:43;4.07;;;3.53;;
19907;SDS011;10116;53.112;7.356;2023-06-10T05:57:09;6.60;;;3.60;;
19907;SDS011;10116;53.112;7.356;2023-06-10T05:59:35;3.60;;;3.30;;
19907;SDS011;10116;53.112;7.356;2023-06-10T06:02:01;4.80;;;4.37;;
19907;SDS011;10116;53.112;7.356;2023-06-10T06:04:27;6.70;;;4.10;;
19907;SDS011;10116;53.112;7.356;2023-06-10T06:06:52;4.60;;;4.27;;
19907;SDS011;10116;53.112;7.356;2023-06-10T06:09:18;5.27;;;4.30;;
19907;SDS011;10116;53.112;7.356;2023-06-10T06:11:43;6.50;;;4.23;;
19907;SDS011;10116;53.112;7.356;2023-06-10T06:14:09;4.47;;;4.17;;
19907;SDS011;10116;53.112;7.356;2023-06-10T06:16:34;4.33;;;4.03;;
19907;SDS011;10116;53.112;7.356;2023-06-10T06:19:00;3.90;;;3.57;;
19907;SDS011;10116;53.112;7.356;2023-06-10T06:21:26;5.60;;;3.90;;
19907;SDS011;10116;53.112;7.356;2023-06-10T06:23:51;3.57;;;3.37;;
19907;SDS011;10116;53.112;7.356;2023-06-10T06:26:17;4.13;;;3.83;;
19907;SDS011;10116;53.112;7.356;2023-06-10T06:28:42;4.73;;;4.30;;
19907;SDS011;10116;53.112;7.356;2023-06-10T06:31:08;3.97;;;3.77;;
19907;SDS011;10116;53.112;7.356;2023-06-10T06:33:34;4.60;;;3.83;;
19907;SDS011;10116;53.112;7.356;2023-06-10T06:35:59;4.33;;;3.73;;
19907;SDS011;10116;53.112;7.356;2023-06-10T06:38:25;4.90;;;4.30;;
19907;SDS011;10116;53.112;7.356;2023-06-10T06:40:51;4.37;;;3.83;;
19907;SDS011;10116;53.112;7.356;2023-06-10T06:43:17;4.33;;;3.93;;
19907;SDS011;10116;53.112;7.356;2023-06-10T06:45:43;4.83;;;4.43;;
19907;SDS011;10116;53.112;7.356;2023-06-10T06:48:10;4.57;;;4.30;;
19907;SDS011;10116;53.112;7.356;2023-06-10T06:50:36;4.07;;;3.77;;
19907;SDS011;10116;53.112;7.356;2023-06-10T06:53:02;4.80;;;4.40;;
19907;SDS011;10116;53.112;7.356;2023-06-10T06:55:28;4.13;;;3.93;;
19907;SDS011;10116;53.112;7.356;2023-06-10T06:57:54;3.67;;;3.40;;
19907;SDS011;10116;53.112;7.356;2023-06-10T07:00:20;4.30;;;3.90;;
19907;SDS011;10116;53.112;7.356;2023-06-10T07:02:46;4.17;;;3.20;;
19907;SDS011;10116;53.112;7.356;2023-06-10T07:05:12;3.97;;;3.63;;
19907;SDS011;10116;53.112;7.356;2023-06-10T07:07:38;3.50;;;3.20;;
19907;SDS011;10116;53.112;7.356;2023-06-10T07:10:04;3.67;;;3.37;;
19907;SDS011;10116;53.112;7.356;2023-06-10T07:12:30;4.00;;;3.63;;
19907;SDS011;10116;53.112;7.356;2023-06-10T07:14:55;3.40;;;3.20;;
19907;SDS011;10116;53.112;7.356;2023-06-10T07:17:21;4.47;;;4.00;;
19907;SDS011;10116;53.112;7.356;2023-06-10T07:19:47;3.63;;;3.33;;
19907;SDS011;10116;53.112;7.356;2023-06-10T07:22:12;5.00;;;3.53;;
19907;SDS011;10116;53.112;7.356;2023-06-10T07:24:38;8.23;;;3.60;;
19907;SDS011;10116;53.112;7.356;2023-06-10T07:27:04;4.23;;;3.60;;
19907;SDS011;10116;53.112;7.356;2023-06-10T07:29:30;3.67;;;3.47;;
19907;SDS011;10116;53.112;7.356;2023-06-10T07:31:56;3.63;;;3.30;;
19907;SDS011;10116;53.112;7.356;2023-06-10T07:34:21;3.93;;;3.10;;
19907;SDS011;10116;53.112;7.356;2023-06-10T07:36:47;4.80;;;3.60;;
19907;SDS011;10116;53.112;7.356;2023-06-10T07:39:13;3.33;;;3.10;;
19907;SDS011;10116;53.112;7.356;2023-06-10T07:41:38;8.07;;;4.33;;
19907;SDS011;10116;53.112;7.356;2023-06-10T07:44:04;4.93;;;3.60;;
19907;SDS011;10116;53.112;7.356;2023-06-10T07:46:30;3.53;;;3.30;;
19907;SDS011;10116;53.112;7.356;2023-06-10T07:48:55;3.50;;;3.20;;
19907;SDS011;10116;53.112;7.356;2023-06-10T07:51:21;3.73;;;3.43;;
19907;SDS011;10116;53.112;7.356;2023-06-10T07:53:47;4.70;;;3.60;;
19907;SDS011;10116;53.112;7.356;2023-06-10T07:56:12;3.40;;;2.80;;
19907;SDS011;10116;53.112;7.356;2023-06-10T07:58:38;3.50;;;3.23;;
19907;SDS011;10116;53.112;7.356;2023-06-10T08:01:04;3.50;;;3.20;;
19907;SDS011;10116;53.112;7.356;2023-06-10T08:03:30;4.20;;;3.80;;
19907;SDS011;10116;53.112;7.356;2023-06-10T08:05:55;3.30;;;3.10;;
19907;SDS011;10116;53.112;7.356;2023-06-10T08:08:21;5.03;;;3.40;;
19907;SDS011;10116;53.112;7.356;2023-06-10T08:10:46;6.13;;;3.53;;
19907;SDS011;10116;53.112;7.356;2023-06-10T08:13:13;3.53;;;3.23;;
19907;SDS011;10116;53.112;7.356;2023-06-10T08:15:38;3.63;;;3.30;;
19907;SDS011;10116;53.112;7.356;2023-06-10T08:18:04;4.87;;;3.50;;
19907;SDS011;10116;53.112;7.356;2023-06-10T08:20:29;4.23;;;3.60;;
19907;SDS011;10116;53.112;7.356;2023-06-10T08:22:55;5.07;;;4.17;;
19907;SDS011;10116;53.112;7.356;2023-06-10T08:25:21;11.00;;;3.33;;
19907;SDS011;10116;53.112;7.356;2023-06-10T08:27:47;5.00;;;3.73;;
19907;SDS011;10116;53.112;7.356;2023-06-10T08:30:13;4.77;;;3.83;;
19907;SDS011;10116;53.112;7.356;2023-06-10T08:32:39;4.80;;;3.90;;
19907;SDS011;10116;53.112;7.356;2023-06-10T08:35:05;3.93;;;3.63;;
19907;SDS011;10116;53.112;7.356;2023-06-10T08:37:30;4.27;;;3.97;;
19907;SDS011;10116;53.112;7.356;2023-06-10T08:39:56;5.30;;;4.00;;
19907;SDS011;10116;53.112;7.356;2023-06-10T08:42:28;4.10;;;3.70;;
19907;SDS011;10116;53.112;7.356;2023-06-10T08:44:58;5.73;;;3.97;;
19907;SDS011;10116;53.112;7.356;2023-06-10T08:47:27;3.97;;;3.20;;
19907;SDS011;10116;53.112;7.356;2023-06-10T08:49:56;4.57;;;4.17;;
19907;SDS011;10116;53.112;7.356;2023-06-10T08:52:28;4.57;;;3.70;;
19907;SDS011;10116;53.112;7.356;2023-06-10T08:55:00;5.07;;;4.00;;
19907;SDS011;10116;53.112;7.356;2023-06-10T08:57:39;4.10;;;3.70;;
19907;SDS011;10116;53.112;7.356;2023-06-10T09:00:07;5.47;;;3.50;;
19907;SDS011;10116;53.112;7.356;2023-06-10T09:02:33;6.93;;;3.87;;
19907;SDS011;10116;53.112;7.356;2023-06-10T09:05:00;5.30;;;3.90;;
19907;SDS011;10116;53.112;7.356;2023-06-10T09:07:27;5.77;;;3.70;;
19907;SDS011;10116;53.112;7.356;2023-06-10T09:09:56;4.23;;;3.83;;
19907;SDS011;10116;53.112;7.356;2023-06-10T09:12:24;4.03;;;3.67;;
19907;SDS011;10116;53.112;7.356;2023-06-10T09:14:49;5.97;;;3.93;;
19907;SDS011;10116;53.112;7.356;2023-06-10T09:17:16;4.33;;;3.93;;
19907;SDS011;10116;53.112;7.356;2023-06-10T09:19:41;4.73;;;3.57;;
19907;SDS011;10116;53.112;7.356;2023-06-10T09:22:09;3.63;;;3.33;;
19907;SDS011;10116;53.112;7.356;2023-06-10T09:24:35;5.07;;;3.67;;
19907;SDS011;10116;53.112;7.356;2023-06-10T09:27:04;4.90;;;3.70;;
19907;SDS011;10116;53.112;7.356;2023-06-10T09:29:43;4.57;;;3.83;;
19907;SDS011;10116;53.112;7.356;2023-06-10T09:32:19;4.33;;;3.30;;
19907;SDS011;10116;53.112;7.356;2023-06-10T09:34:46;4.37;;;3.97;;
19907;SDS011;10116;53.112;7.356;2023-06-10T09:37:12;6.37;;;3.50;;
19907;SDS011;10116;53.112;7.356;2023-06-10T09:39:44;3.83;;;3.40;;
19907;SDS011;10116;53.112;7.356;2023-06-10T09:42:16;4.27;;;3.83;;
19907;SDS011;10116;53.112;7.356;2023-06-10T09:44:48;4.67;;;4.13;;
19907;SDS011;10116;53.112;7.356;2023-06-10T09:47:19;5.43;;;3.87;;
19907;SDS011;10116;53.112;7.356;2023-06-10T09:49:48;5.00;;;4.10;;
19907;SDS011;10116;53.112;7.356;2023-06-10T09:52:20;3.93;;;3.60;;
19907;SDS011;10116;53.112;7.356;2023-06-10T09:54:50;4.70;;;4.00;;
19907;SDS011;10116;53.112;7.356;2023-06-10T09:57:17;4.33;;;3.83;;
19907;SDS011;10116;53.112;7.356;2023-06-10T09:59:45;3.87;;;3.57;;
19907;SDS011;10116;53.112;7.356;2023-06-10T10:02:14;3.67;;;3.47;;
19907;SDS011;10116;53.112;7.356;2023-06-10T10:04:41;4.57;;;3.50;;
19907;SDS011;10116;53.112;7.356;2023-06-10T10:07:07;4.53;;;3.93;;
19907;SDS011;10116;53.112;7.356;2023-06-10T10:09:33;4.93;;;4.10;;
19907;SDS011;10116;53.112;7.356;2023-06-10T10:12:01;5.10;;;3.83;;
19907;SDS011;10116;53.112;7.356;2023-06-10T10:14:28;5.67;;;4.17;;
19907;SDS011;10116;53.112;7.356;2023-06-10T10:16:57;6.10;;;3.70;;
19907;SDS011;10116;53.112;7.356;2023-06-10T10:19:29;7.60;;;4.40;;
19907;SDS011;10116;53.112;7.356;2023-06-10T10:22:10;4.20;;;3.90;;
19907;SDS011;10116;53.112;7.356;2023-06-10T10:24:53;5.90;;;3.80;;
19907;SDS011;10116;53.112;7.356;2023-06-10T10:27:56;3.87;;;3.57;;
19907;SDS011;10116;53.112;7.356;2023-06-10T10:30:17;4.70;;;4.13;;
19907;SDS011;10116;53.112;7.356;2023-06-10T10:35:21;3.40;;;3.10;;
19907;SDS011;10116;53.112;7.356;2023-06-10T10:37:48;4.10;;;3.70;;
19907;SDS011;10116;53.112;7.356;2023-06-10T10:40:15;3.80;;;3.30;;
19907;SDS011;10116;53.112;7.356;2023-06-10T10:42:41;3.47;;;3.27;;
19907;SDS011;10116;53.112;7.356;2023-06-10T10:45:08;3.33;;;3.03;;
19907;SDS011;10116;53.112;7.356;2023-06-10T10:47:35;4.70;;;4.30;;
19907;SDS011;10116;53.112;7.356;2023-06-10T10:50:03;4.50;;;4.10;;
19907;SDS011;10116;53.112;7.356;2023-06-10T10:52:51;3.97;;;3.67;;
19907;SDS011;10116;53.112;7.356;2023-06-10T10:55:18;3.47;;;3.23;;
19907;SDS011;10116;53.112;7.356;2023-06-10T10:57:44;6.37;;;4.57;;
19907;SDS011;10116;53.112;7.356;2023-06-10T11:00:10;4.40;;;3.30;;
19907;SDS011;10116;53.112;7.356;2023-06-10T11:02:43;4.73;;;4.33;;
19907;SDS011;10116;53.112;7.356;2023-06-10T11:05:12;4.10;;;3.70;;
19907;SDS011;10116;53.112;7.356;2023-06-10T11:07:39;4.00;;;3.70;;
19907;SDS011;10116;53.112;7.356;2023-06-10T11:10:06;5.00;;;4.53;;
19907;SDS011;10116;53.112;7.356;2023-06-10T11:15:06;4.03;;;3.83;;
19907;SDS011;10116;53.112;7.356;2023-06-10T11:17:32;4.53;;;3.87;;
19907;SDS011;10116;53.112;7.356;2023-06-10T11:20:00;4.17;;;3.80;;
19907;SDS011;10116;53.112;7.356;2023-06-10T11:22:26;4.90;;;4.50;;
19907;SDS011;10116;53.112;7.356;2023-06-10T11:24:52;6.03;;;4.30;;
19907;SDS011;10116;53.112;7.356;2023-06-10T11:27:18;4.43;;;3.80;;
19907;SDS011;10116;53.112;7.356;2023-06-10T11:29:58;3.60;;;3.30;;
19907;SDS011;10116;53.112;7.356;2023-06-10T11:32:31;3.90;;;3.60;;
19907;SDS011;10116;53.112;7.356;2023-06-10T11:34:58;5.43;;;4.43;;
19907;SDS011;10116;53.112;7.356;2023-06-10T11:37:24;4.67;;;3.47;;
19907;SDS011;10116;53.112;7.356;2023-06-10T11:39:53;6.63;;;3.97;;
19907;SDS011;10116;53.112;7.356;2023-06-10T11:42:19;11.77;;;5.07;;
19907;SDS011;10116;53.112;7.356;2023-06-10T11:44:52;11.10;;;5.20;;
19907;SDS011;10116;53.112;7.356;2023-06-10T11:47:19;6.00;;;4.83;;
19907;SDS011;10116;53.112;7.356;2023-06-10T11:49:45;10.53;;;5.50;;
19907;SDS011;10116;53.112;7.356;2023-06-10T11:52:25;4.77;;;3.80;;
19907;SDS011;10116;53.112;7.356;2023-06-10T11:54:53;6.40;;;4.73;;
19907;SDS011;10116;53.112;7.356;2023-06-10T11:57:20;6.37;;;4.93;;
19907;SDS011;10116;53.112;7.356;2023-06-10T11:59:45;4.97;;;4.57;;
19907;SDS011;10116;53.112;7.356;2023-06-10T12:02:14;4.43;;;3.90;;
19907;SDS011;10116;53.112;7.356;2023-06-10T12:04:41;6.87;;;4.40;;
19907;SDS011;10116;53.112;7.356;2023-06-10T12:07:06;5.60;;;5.03;;
19907;SDS011;10116;53.112;7.356;2023-06-10T12:09:32;5.00;;;4.33;;
19907;SDS011;10116;53.112;7.356;2023-06-10T12:11:59;6.10;;;4.93;;
19907;SDS011;10116;53.112;7.356;2023-06-10T12:19:56;4.73;;;4.40;;
19907;SDS011;10116;53.112;7.356;2023-06-10T12:22:23;4.70;;;4.40;;
19907;SDS011;10116;53.112;7.356;2023-06-10T12:25:00;6.30;;;4.77;;
19907;SDS011;10116;53.112;7.356;2023-06-10T12:27:28;6.03;;;4.00;;
19907;SDS011;10116;53.112;7.356;2023-06-10T12:29:55;4.73;;;4.33;;
19907;SDS011;10116;53.112;7.356;2023-06-10T12:32:41;5.50;;;4.10;;
19907;SDS011;10116;53.112;7.356;2023-06-10T12:35:09;5.17;;;4.50;;
19907;SDS011;10116;53.112;7.356;2023-06-10T12:37:37;5.50;;;4.63;;
19907;SDS011;10116;53.112;7.356;2023-06-10T12:40:03;4.40;;;4.07;;
19907;SDS011;10116;53.112;7.356;2023-06-10T12:42:31;4.27;;;3.93;;
19907;SDS011;10116;53.112;7.356;2023-06-10T12:45:00;4.63;;;4.27;;
19907;SDS011;10116;53.112;7.356;2023-06-10T12:47:32;4.10;;;3.60;;
19907;SDS011;10116;53.112;7.356;2023-06-10T12:50:00;7.60;;;4.10;;
19907;SDS011;10116;53.112;7.356;2023-06-10T12:52:26;4.90;;;3.60;;
19907;SDS011;10116;53.112;7.356;2023-06-10T12:54:52;4.50;;;4.10;;
19907;SDS011;10116;53.112;7.356;2023-06-10T12:57:19;4.83;;;4.53;;
19907;SDS011;10116;53.112;7.356;2023-06-10T12:59:44;4.17;;;3.90;;
19907;SDS011;10116;53.112;7.356;2023-06-10T13:02:15;8.63;;;4.53;;
19907;SDS011;10116;53.112;7.356;2023-06-10T13:04:44;3.70;;;3.50;;
19907;SDS011;10116;53.112;7.356;2023-06-10T13:07:10;4.30;;;4.00;;
19907;SDS011;10116;53.112;7.356;2023-06-10T13:09:36;8.93;;;4.30;;
19907;SDS011;10116;53.112;7.356;2023-06-10T13:12:02;5.77;;;5.27;;
19907;SDS011;10116;53.112;7.356;2023-06-10T13:14:28;4.20;;;3.80;;
19907;SDS011;10116;53.112;7.356;2023-06-10T13:16:54;3.63;;;3.43;;
19907;SDS011;10116;53.112;7.356;2023-06-10T13:19:20;4.23;;;3.80;;
19907;SDS011;10116;53.112;7.356;2023-06-10T13:21:48;5.00;;;3.90;;
19907;SDS011;10116;53.112;7.356;2023-06-10T13:24:14;4.43;;;4.03;;
19907;SDS011;10116;53.112;7.356;2023-06-10T13:26:40;4.47;;;4.07;;
19907;SDS011;10116;53.112;7.356;2023-06-10T13:29:06;4.07;;;3.77;;
19907;SDS011;10116;53.112;7.356;2023-06-10T13:31:33;4.13;;;3.90;;
19907;SDS011;10116;53.112;7.356;2023-06-10T13:33:58;3.70;;;3.40;;
19907;SDS011;10116;53.112;7.356;2023-06-10T13:36:24;4.43;;;3.30;;
19907;SDS011;10116;53.112;7.356;2023-06-10T13:38:50;4.77;;;3.77;;
19907;SDS011;10116;53.112;7.356;2023-06-10T13:41:15;3.80;;;3.50;;
19907;SDS011;10116;53.112;7.356;2023-06-10T13:43:41;3.57;;;3.37;;
19907;SDS011;10116;53.112;7.356;2023-06-10T13:46:07;4.13;;;3.43;;
19907;SDS011;10116;53.112;7.356;2023-06-10T13:48:32;3.07;;;2.97;;
19907;SDS011;10116;53.112;7.356;2023-06-10T13:50:58;3.90;;;3.60;;
19907;SDS011;10116;53.112;7.356;2023-06-10T13:53:25;7.50;;;3.37;;
19907;SDS011;10116;53.112;7.356;2023-06-10T13:55:50;2.87;;;2.77;;
19907;SDS011;10116;53.112;7.356;2023-06-10T13:58:16;2.53;;;2.33;;
19907;SDS011;10116;53.112;7.356;2023-06-10T14:00:41;3.10;;;2.90;;
19907;SDS011;10116;53.112;7.356;2023-06-10T14:03:07;4.07;;;3.40;;
19907;SDS011;10116;53.112;7.356;2023-06-10T14:05:33;2.93;;;2.63;;
19907;SDS011;10116;53.112;7.356;2023-06-10T14:07:59;5.03;;;3.00;;
19907;SDS011;10116;53.112;7.356;2023-06-10T14:10:25;3.80;;;3.27;;
19907;SDS011;10116;53.112;7.356;2023-06-10T14:12:50;3.17;;;2.87;;
19907;SDS011;10116;53.112;7.356;2023-06-10T14:15:16;3.40;;;3.20;;
19907;SDS011;10116;53.112;7.356;2023-06-10T14:17:42;4.13;;;2.60;;
19907;SDS011;10116;53.112;7.356;2023-06-10T14:20:08;4.90;;;2.80;;
19907;SDS011;10116;53.112;7.356;2023-06-10T14:22:34;3.47;;;2.70;;
19907;SDS011;10116;53.112;7.356;2023-06-10T14:24:59;2.93;;;2.73;;
19907;SDS011;10116;53.112;7.356;2023-06-10T14:27:25;2.67;;;2.50;;
19907;SDS011;10116;53.112;7.356;2023-06-10T14:29:50;3.00;;;2.70;;
19907;SDS011;10116;53.112;7.356;2023-06-10T14:32:16;4.23;;;2.50;;
19907;SDS011;10116;53.112;7.356;2023-06-10T14:34:41;6.20;;;2.80;;
19907;SDS011;10116;53.112;7.356;2023-06-10T14:37:09;5.10;;;3.10;;
19907;SDS011;10116;53.112;7.356;2023-06-10T14:39:35;3.13;;;2.83;;
19907;SDS011;10116;53.112;7.356;2023-06-10T14:42:01;4.00;;;3.00;;
19907;SDS011;10116;53.112;7.356;2023-06-10T14:44:26;4.33;;;3.60;;
19907;SDS011;10116;53.112;7.356;2023-06-10T14:46:52;3.17;;;2.73;;
19907;SDS011;10116;53.112;7.356;2023-06-10T14:49:18;5.33;;;2.60;;
19907;SDS011;10116;53.112;7.356;2023-06-10T14:51:43;2.63;;;2.30;;
19907;SDS011;10116;53.112;7.356;2023-06-10T14:54:09;3.50;;;2.90;;
19907;SDS011;10116;53.112;7.356;2023-06-10T14:56:35;4.30;;;2.80;;